Black Mountain, NC

8:58 AM EDT on March 30, 2015 (GMT -0400)
Timber Park | | Change Station
CLOSE
Current Station
Personal Weather Station
Location: Black Mountain, NC
Elevation: 2615 ft
Nearby Weather Stations

Elev 2615 ft 35.60 °N, 82.31 °W | Updated 19 seconds ago

Overcast
Overcast
44.0 °F
Feels Like 44 °F
N
3.0
Wind Variable Wind from WNW
Gusts 8.0 mph

Today
High -- | Low -- °F
--% Chance of Precip.
Yesterday
High -- | Low -- °F
Precip. -- in
7:18 AM 7:49 PM
Waxing Gibbous, 79% visible
Pressure 30.04 in
Visibility 9.0 miles
Clouds Mostly Cloudy 4700 ft
Mostly Cloudy 5500 ft
Windchill 44 °F
Dew Point 42 °F
Humidity 91%
Rainfall 0.15 in
Snow Depth Not available.
UV 0 out of 12
Pollen 8.30 out of 12
Air Quality Not available.
Flu Activity Not available.
METAR KAVL 301154Z 34004KT 9SM BKN047 BKN055 04/03 A3005 RMK AO2 RAE27 SLP173 P0000 60023 70023 T00440033 10083 20044 50000

More Conditions Fewer Conditions

Pressure 30.04 in
Visibility 9.0 miles
Clouds Mostly Cloudy 4700 ft
Mostly Cloudy 5500 ft
Windchill 44 °F
Dew Point 42 °F
Humidity 91%
Rainfall 0.15 in
Snow Depth Not available.
UV 0 out of 12
Pollen 8.30 out of 12
Air Quality Not available.
Flu Activity Not available.
METAR KAVL 301154Z 34004KT 9SM BKN047 BKN055 04/03 A3005 RMK AO2 RAE27 SLP173 P0000 60023 70023 T00440033 10083 20044 50000

More Conditions Fewer Conditions

10-Day Weather Forecast

Almanac

Astronomy

Mar. 30, 2015 Rise Set
Actual Time
Civil Twilight
Nautical Twilight
Astronomical Twilight
Moon
Length of Visible Light
Length of Day
Tomorrow will be .
, % of the Moon is Illuminated

Today's Extremes

State Highs State Lows

Community

WunderPhotos

Upload Photos

1,809,464 photos uploaded!

WunderBlogs® & News

Nearby

Air Quality

  Air Quality AQ Index Pollutant
Not available.

Snow Depth

Station Depth Elevation

Earthquake Activity

City Distance Mag. Time & Date
Minimum magnitude displayed is 2.5.

Coastal Water Temperatures

Place Temperature

Stations

Nearby Weather Stations

Station Location Temp. Windchill Dew Point Humidity Wind Precip. Elev Updated Type